Time;durP1;ratioP1;P1;durP2;ratioP2;P2;SDS_P1;SDS_P2;PMS_P1;PMS_P2;Temp;Humidity;BMP_temperature;BMP_pressure;BME280_temperature;BME280_humidity;BME280_pressure;Samples;Min_cycle;Max_cycle;Signal;HPM_P1;HPM_P2
2021/11/20 00:01:06;;;;;;;7.68;4.07;;;;;;;10.20;72.16;100678.19;4967130;28;106158;-74
2021/11/20 00:03:31;;;;;;;5.25;3.20;;;;;;;10.19;72.08;100665.88;4967116;28;107299;-71
2021/11/20 00:05:57;;;;;;;6.35;3.28;;;;;;;10.20;71.62;100667.53;4967300;28;106463;-72
2021/11/20 00:08:23;;;;;;;7.03;3.22;;;;;;;10.19;71.86;100649.06;4967977;28;106100;-72
2021/11/20 00:10:53;;;;;;;6.55;3.28;;;;;;;10.17;71.75;100662.53;4967701;28;106457;-74
2021/11/20 00:13:19;;;;;;;7.23;3.70;;;;;;;10.19;71.83;100659.72;4965053;28;107836;-67
2021/11/20 00:15:48;;;;;;;9.90;4.22;;;;;;;10.18;71.57;100660.69;4967408;28;105940;-71
2021/11/20 00:18:15;;;;;;;6.63;2.60;;;;;;;10.18;71.46;100666.84;4967975;28;105992;-74
2021/11/20 00:20:48;;;;;;;7.55;3.10;;;;;;;10.16;72.13;100671.50;4967519;28;106425;-66
2021/11/20 00:23:17;;;;;;;34.95;25.70;;;;;;;10.15;72.07;100661.84;4967187;28;106992;-69
2021/11/20 00:25:50;;;;;;;11.68;5.07;;;;;;;10.13;71.41;100667.34;4966950;28;106023;-73
2021/11/20 00:28:28;;;;;;;7.30;3.72;;;;;;;10.14;71.77;100669.00;4968071;28;105935;-67
2021/11/20 00:30:58;;;;;;;5.88;3.22;;;;;;;10.14;71.41;100654.84;4967585;28;105991;-66
2021/11/20 00:33:30;;;;;;;6.88;3.63;;;;;;;10.14;71.89;100660.16;4966969;28;106237;-66
2021/11/20 00:35:58;;;;;;;8.82;3.53;;;;;;;10.12;72.03;100665.66;4966290;28;105992;-73
2021/11/20 00:38:24;;;;;;;6.85;3.60;;;;;;;10.12;71.65;100681.63;4964946;28;106066;-69
2021/11/20 00:40:55;;;;;;;7.05;3.47;;;;;;;10.12;71.97;100683.47;4966887;28;106054;-71
2021/11/20 00:43:21;;;;;;;4.63;3.22;;;;;;;10.12;72.17;100681.63;4977026;28;105952;-73
2021/11/20 00:45:48;;;;;;;7.82;3.15;;;;;;;10.12;71.98;100686.94;4985708;28;106403;-65
2021/11/20 00:48:16;;;;;;;4.65;3.00;;;;;;;10.12;71.86;100676.31;4986612;28;106439;-68
2021/11/20 00:50:44;;;;;;;7.07;3.80;;;;;;;10.13;72.12;100680.63;4986797;28;106567;-65
2021/11/20 00:53:10;;;;;;;6.70;3.80;;;;;;;10.13;72.15;100682.47;4986528;28;106581;-72
2021/11/20 00:55:36;;;;;;;7.03;4.13;;;;;;;10.12;71.90;100673.63;4986249;28;106003;-69
2021/11/20 00:58:04;;;;;;;7.88;3.80;;;;;;;10.12;71.84;100678.97;4986983;28;106320;-73
2021/11/20 01:00:35;;;;;;;10.25;3.78;;;;;;;10.12;72.26;100670.97;4986350;28;106225;-72
2021/11/20 01:03:01;;;;;;;7.75;3.72;;;;;;;10.11;71.83;100682.59;4986700;28;106263;-66
2021/11/20 01:05:26;;;;;;;5.80;3.47;;;;;;;10.11;71.94;100677.28;4986742;28;106249;-69
2021/11/20 01:07:52;;;;;;;5.55;3.80;;;;;;;10.11;71.97;100663.16;4987776;28;106519;-65
2021/11/20 01:10:20;;;;;;;8.95;3.90;;;;;;;10.09;72.15;100671.28;4988928;28;106580;-66
2021/11/20 01:12:46;;;;;;;7.57;4.00;;;;;;;10.09;71.86;100655.31;4989472;28;107282;-69
2021/11/20 01:15:16;;;;;;;9.23;4.53;;;;;;;10.06;72.35;100650.31;4989819;28;105904;-69
2021/11/20 01:17:42;;;;;;;8.30;4.47;;;;;;;10.02;72.29;100664.94;4962807;28;106029;-66
2021/11/20 01:20:09;;;;;;;6.72;4.88;;;;;;;9.99;72.36;100649.25;4971520;28;106266;-70
2021/11/20 01:22:35;;;;;;;7.53;4.55;;;;;;;10.02;72.35;100678.25;4971156;28;106759;-68
2021/11/20 01:25:00;;;;;;;10.85;4.10;;;;;;;10.01;72.18;100684.53;4971562;28;105874;-65
2021/11/20 01:27:26;;;;;;;7.40;4.03;;;;;;;10.04;72.37;100662.94;4972306;28;106213;-66
2021/11/20 01:29:52;;;;;;;8.90;4.57;;;;;;;10.07;72.48;100673.25;4971833;28;105988;-66
2021/11/20 01:32:18;;;;;;;6.32;3.83;;;;;;;10.07;72.71;100659.94;4971762;28;105925;-67
2021/11/20 01:34:45;;;;;;;8.23;4.22;;;;;;;10.09;72.66;100662.50;4971510;28;105723;-66
2021/11/20 01:37:14;;;;;;;7.65;4.75;;;;;;;10.10;72.63;100678.28;4972175;28;105877;-67
2021/11/20 01:39:41;;;;;;;11.50;5.20;;;;;;;10.11;72.41;100661.31;4971176;28;106152;-67
2021/11/20 01:42:15;;;;;;;7.82;4.28;;;;;;;10.13;72.45;100659.34;4971280;28;105768;-68
2021/11/20 01:44:49;;;;;;;7.97;3.80;;;;;;;10.14;72.49;100653.03;4971283;28;106340;-65
2021/11/20 01:47:23;;;;;;;9.15;4.25;;;;;;;10.15;72.28;100636.03;4971658;28;106438;-65
2021/11/20 01:49:55;;;;;;;9.18;5.15;;;;;;;10.14;72.36;100620.22;4971444;28;105919;-67
2021/11/20 01:52:42;;;;;;;6.68;3.95;;;;;;;10.11;72.81;100637.34;4971184;28;105821;-68
2021/11/20 01:55:32;;;;;;;7.75;4.05;;;;;;;10.11;72.62;100639.19;4970832;28;106021;-74
2021/11/20 01:58:00;;;;;;;6.22;4.57;;;;;;;10.11;72.99;100634.69;4972167;28;106089;-72
2021/11/20 02:00:46;;;;;;;7.55;4.63;;;;;;;10.11;73.13;100633.88;4970856;28;106283;-65
2021/11/20 02:03:23;;;;;;;8.73;4.88;;;;;;;10.13;72.61;100640.72;4970212;28;106653;-66
2021/11/20 02:06:08;;;;;;;10.80;4.30;;;;;;;10.13;72.80;100635.38;4970671;28;106094;-66
2021/11/20 02:08:39;;;;;;;8.80;4.40;;;;;;;10.15;73.02;100643.22;4971701;28;106069;-69
2021/11/20 02:11:23;;;;;;;6.72;4.85;;;;;;;10.16;72.79;100643.06;4971079;28;106166;-70
2021/11/20 02:13:50;;;;;;;7.68;4.15;;;;;;;10.17;72.91;100641.25;4970862;28;105769;-67
2021/11/20 02:16:21;;;;;;;7.78;4.50;;;;;;;10.17;73.16;100646.56;4970305;28;105853;-67
2021/11/20 02:18:51;;;;;;;9.82;4.15;;;;;;;10.19;73.10;100643.75;4971577;28;105999;-66
2021/11/20 02:21:25;;;;;;;7.88;4.55;;;;;;;10.19;72.76;100655.22;4970158;28;106204;-69
2021/11/20 02:23:52;;;;;;;9.00;4.65;;;;;;;10.20;73.25;100651.56;4970701;28;106264;-66
2021/11/20 02:26:18;;;;;;;11.02;5.13;;;;;;;10.21;72.80;100657.72;4970464;28;106091;-68
2021/11/20 02:28:45;;;;;;;11.73;4.88;;;;;;;10.19;73.23;100662.38;4969845;28;106088;-70
2021/11/20 02:31:15;;;;;;;7.53;4.32;;;;;;;10.19;72.78;100660.53;4970497;28;106153;-68
2021/11/20 02:33:41;;;;;;;8.37;4.43;;;;;;;10.19;73.35;100654.41;4970559;28;106173;-66
2021/11/20 02:36:19;;;;;;;8.70;5.45;;;;;;;10.20;72.97;100661.38;4970389;28;106039;-70
2021/11/20 02:39:03;;;;;;;8.15;5.38;;;;;;;10.20;73.11;100648.91;4971288;28;106033;-74
2021/11/20 02:41:30;;;;;;;7.32;4.95;;;;;;;10.21;72.86;100661.25;4970536;28;106188;-72
2021/11/20 02:44:00;;;;;;;10.38;5.95;;;;;;;10.21;72.80;100658.56;4969940;28;105876;-74
2021/11/20 02:46:29;;;;;;;8.50;4.88;;;;;;;10.23;73.00;100655.75;4969166;28;106489;-73
2021/11/20 02:48:54;;;;;;;9.82;5.65;;;;;;;10.21;73.41;100661.25;4970893;28;106502;-74
2021/11/20 02:51:24;;;;;;;8.70;5.35;;;;;;;10.23;73.08;100667.22;4970500;28;106371;-74
2021/11/20 02:54:00;;;;;;;9.18;5.75;;;;;;;10.24;73.30;100652.09;4969812;28;105825;-74
2021/11/20 02:56:31;;;;;;;9.73;6.00;;;;;;;10.22;72.90;100654.91;4969617;28;105866;-67
2021/11/20 02:58:57;;;;;;;10.05;5.90;;;;;;;10.21;72.99;100655.06;4970846;28;105881;-68
2021/11/20 03:01:29;;;;;;;9.85;5.53;;;;;;;10.23;72.95;100669.88;4970063;28;105778;-70
2021/11/20 03:03:55;;;;;;;11.15;5.85;;;;;;;10.23;73.35;100682.38;4969689;28;106008;-72
2021/11/20 03:06:21;;;;;;;8.70;5.70;;;;;;;10.24;72.81;100687.53;4970068;28;105935;-67
2021/11/20 03:08:46;;;;;;;13.68;6.88;;;;;;;10.23;73.50;100690.38;4970428;28;106961;-69
2021/11/20 03:11:13;;;;;;;10.57;6.32;;;;;;;10.23;72.98;100693.03;4969929;28;106130;-68
2021/11/20 03:13:41;;;;;;;9.73;6.07;;;;;;;10.23;73.05;100682.38;4969567;28;105870;-66
2021/11/20 03:16:07;;;;;;;10.90;6.40;;;;;;;10.22;73.50;100680.69;4969673;28;106118;-65
2021/11/20 03:18:33;;;;;;;12.07;6.78;;;;;;;10.20;73.36;100677.34;4970738;28;105888;-73
2021/11/20 03:20:58;;;;;;;11.32;7.28;;;;;;;10.22;73.60;100680.69;4969600;28;106262;-65
2021/11/20 03:23:30;;;;;;;10.75;6.25;;;;;;;10.22;73.43;100675.38;4969990;28;106339;-64
2021/11/20 03:25:55;;;;;;;12.10;6.45;;;;;;;10.22;73.00;100692.16;4969483;28;106156;-66
2021/11/20 03:28:21;;;;;;;14.02;6.30;;;;;;;10.21;73.42;100682.53;4970322;28;105947;-69
2021/11/20 03:30:47;;;;;;;12.05;6.55;;;;;;;10.21;73.50;100689.66;4969834;28;106148;-70
2021/11/20 03:33:13;;;;;;;11.18;6.50;;;;;;;10.21;73.40;100681.69;4967055;28;107067;-67
2021/11/20 03:35:41;;;;;;;9.25;6.25;;;;;;;10.21;73.52;100700.31;4969468;28;105912;-71
2021/11/20 03:38:06;;;;;;;10.25;5.90;;;;;;;10.21;73.31;100689.66;4970591;28;105948;-67
2021/11/20 03:40:32;;;;;;;11.15;7.10;;;;;;;10.21;73.58;100700.31;4969491;28;106242;-65
2021/11/20 03:42:58;;;;;;;11.50;6.35;;;;;;;10.22;73.10;100707.31;4969326;28;105812;-67
2021/11/20 03:45:26;;;;;;;10.02;6.55;;;;;;;10.21;73.44;100700.31;4969123;28;106238;-73
2021/11/20 03:47:52;;;;;;;12.88;6.50;;;;;;;10.20;73.61;100710.16;4969775;28;105967;-74
2021/11/20 03:50:18;;;;;;;10.27;6.30;;;;;;;10.20;73.47;100709.28;4969545;28;106103;-74
2021/11/20 03:52:45;;;;;;;11.05;6.68;;;;;;;10.19;73.62;100705.81;4969199;28;106049;-73
2021/11/20 03:55:14;;;;;;;13.18;6.45;;;;;;;10.19;73.73;100712.97;4969497;28;105893;-73
2021/11/20 03:57:39;;;;;;;11.90;6.53;;;;;;;10.20;73.55;100714.63;4969649;28;105916;-73
2021/11/20 04:00:09;;;;;;;10.27;6.13;;;;;;;10.19;73.38;100707.66;4969487;28;105851;-74
2021/11/20 04:02:36;;;;;;;13.98;6.25;;;;;;;10.22;73.83;100707.31;4968536;28;106556;-74
2021/11/20 04:05:01;;;;;;;12.50;6.82;;;;;;;10.22;73.79;100702.81;4968932;28;105912;-73
2021/11/20 04:07:27;;;;;;;11.02;6.32;;;;;;;10.23;73.67;100714.31;4969754;28;105842;-72
2021/11/20 04:09:52;;;;;;;12.25;6.22;;;;;;;10.23;73.52;100714.31;4968612;28;106417;-72
2021/11/20 04:12:18;;;;;;;9.88;6.22;;;;;;;10.22;73.59;100709.97;4968803;28;105950;-74
2021/11/20 04:14:43;;;;;;;11.18;6.72;;;;;;;10.21;73.94;100711.81;4968888;28;106069;-72
2021/11/20 04:17:08;;;;;;;10.40;6.18;;;;;;;10.22;73.51;100707.31;4969722;28;106030;-74
2021/11/20 04:19:34;;;;;;;8.30;5.95;;;;;;;10.21;73.81;100705.66;4969119;28;106132;-74
2021/11/20 04:21:59;;;;;;;10.85;6.47;;;;;;;10.20;73.94;100695.97;4968867;28;105895;-73
2021/11/20 04:24:25;;;;;;;10.70;6.10;;;;;;;10.18;73.33;100697.97;4968775;28;105951;-75
2021/11/20 04:26:51;;;;;;;11.35;6.45;;;;;;;10.16;73.89;100698.97;4969708;28;105878;-73
2021/11/20 04:29:17;;;;;;;9.63;6.70;;;;;;;10.14;73.76;100702.75;4968734;28;106295;-74
2021/11/20 04:31:43;;;;;;;9.50;6.40;;;;;;;10.13;73.95;100701.13;4968744;28;105914;-74
2021/11/20 04:34:09;;;;;;;11.43;5.75;;;;;;;10.11;73.80;100687.94;4968563;28;105841;-72
2021/11/20 04:36:34;;;;;;;9.23;5.70;;;;;;;10.10;73.78;100691.59;4968976;28;105995;-74
2021/11/20 04:39:00;;;;;;;11.70;6.68;;;;;;;10.09;73.72;100694.44;4968986;28;106164;-74
2021/11/20 04:41:26;;;;;;;10.07;6.47;;;;;;;10.08;73.75;100692.75;4968229;28;106120;-75
2021/11/20 04:43:52;;;;;;;10.23;6.20;;;;;;;10.06;74.08;100698.22;4968237;28;105921;-74
2021/11/20 04:46:21;;;;;;;11.25;6.40;;;;;;;10.06;74.30;100694.72;4969159;28;106057;-75
2021/11/20 04:48:46;;;;;;;10.32;6.22;;;;;;;10.06;74.19;100676.09;4968032;28;105831;-75
2021/11/20 04:51:13;;;;;;;9.13;6.45;;;;;;;10.05;74.26;100682.41;4968800;28;106524;-75
2021/11/20 04:53:41;;;;;;;10.45;6.95;;;;;;;10.04;74.44;100691.38;4968627;28;106002;-74
2021/11/20 04:56:08;;;;;;;12.75;7.57;;;;;;;10.02;74.09;100691.53;4969162;28;105912;-75
2021/11/20 04:58:34;;;;;;;11.05;6.88;;;;;;;10.02;74.20;100696.00;4968538;28;106218;-75
2021/11/20 05:01:00;;;;;;;10.65;7.45;;;;;;;10.01;74.60;100689.03;4968399;28;106053;-73
2021/11/20 05:03:28;;;;;;;10.73;6.65;;;;;;;9.99;74.58;100698.00;4968022;28;106539;-74
2021/11/20 05:05:54;;;;;;;11.05;7.20;;;;;;;9.97;74.24;100694.66;4969123;28;105888;-73
2021/11/20 05:08:22;;;;;;;12.18;7.32;;;;;;;9.97;74.31;100699.16;4967835;28;106221;-74
2021/11/20 05:10:49;;;;;;;12.63;7.38;;;;;;;9.94;74.77;100704.78;4967987;28;106597;-74
2021/11/20 05:13:14;;;;;;;13.52;7.30;;;;;;;9.93;74.53;100711.09;4968020;28;105971;-70
2021/11/20 05:15:43;;;;;;;14.02;7.68;;;;;;;9.92;74.96;100720.06;4969115;28;106080;-75
2021/11/20 05:18:09;;;;;;;11.63;7.25;;;;;;;9.91;74.54;100718.38;4968236;28;106145;-74
2021/11/20 05:20:35;;;;;;;11.98;7.65;;;;;;;9.92;75.07;100709.41;4967965;28;106231;-75
2021/11/20 05:23:00;;;;;;;12.88;7.30;;;;;;;9.92;74.52;100706.75;4966505;28;106442;-74
2021/11/20 05:25:26;;;;;;;10.38;7.15;;;;;;;9.88;74.53;100710.72;4968690;28;105950;-74
2021/11/20 05:27:55;;;;;;;13.13;7.63;;;;;;;9.87;75.16;100715.22;4968272;28;106272;-73
2021/11/20 05:30:27;;;;;;;10.75;8.82;;;;;;;9.87;75.52;100709.03;4967469;28;105837;-74
2021/11/20 05:32:54;;;;;;;12.18;8.00;;;;;;;9.86;75.17;100720.69;4967972;28;105994;-71
2021/11/20 05:35:20;;;;;;;12.82;8.52;;;;;;;9.83;75.25;100717.31;4968713;28;105935;-74
2021/11/20 05:37:46;;;;;;;11.13;7.97;;;;;;;9.83;75.08;100735.94;4967891;28;106208;-73
2021/11/20 05:40:14;;;;;;;14.73;8.73;;;;;;;9.82;75.45;100718.31;4967486;28;106134;-73
2021/11/20 05:42:50;;;;;;;11.40;7.90;;;;;;;9.82;75.43;100723.63;4967858;28;106108;-71
2021/11/20 05:45:19;;;;;;;13.18;8.50;;;;;;;9.81;75.67;100715.81;4968001;28;105853;-74
2021/11/20 05:47:46;;;;;;;11.07;8.25;;;;;;;9.79;75.39;100720.47;4967457;28;106272;-67
2021/11/20 05:50:12;;;;;;;12.23;8.05;;;;;;;9.76;75.59;100723.41;4967347;28;106666;-68
2021/11/20 05:52:37;;;;;;;13.45;8.40;;;;;;;9.73;75.77;100718.38;4967539;28;105941;-68
2021/11/20 05:55:05;;;;;;;9.82;8.02;;;;;;;9.69;75.89;100723.19;4968559;28;105958;-66
2021/11/20 05:57:31;;;;;;;10.45;8.07;;;;;;;9.69;76.02;100730.31;4970863;28;106168;-68
2021/11/20 05:59:56;;;;;;;13.40;8.23;;;;;;;9.65;76.14;100735.13;4970837;28;107072;-67
2021/11/20 06:02:22;;;;;;;13.38;8.18;;;;;;;9.63;76.55;100739.75;4970356;28;106247;-73
2021/11/20 06:04:48;;;;;;;14.02;8.80;;;;;;;9.62;76.30;100743.38;4971696;28;106126;-66
2021/11/20 06:07:13;;;;;;;11.25;8.75;;;;;;;9.59;76.58;100747.19;4970875;28;106144;-67
2021/11/20 06:09:39;;;;;;;15.05;8.20;;;;;;;9.58;76.57;100739.34;4970483;28;106851;-68
2021/11/20 06:12:05;;;;;;;14.85;8.65;;;;;;;9.57;76.66;100751.00;4969713;28;106061;-73
2021/11/20 06:14:31;;;;;;;14.60;8.88;;;;;;;9.56;76.67;100757.31;4971087;28;105942;-68
2021/11/20 06:16:56;;;;;;;10.65;8.52;;;;;;;9.53;76.77;100760.22;4970653;28;106173;-67
2021/11/20 06:19:22;;;;;;;13.70;8.73;;;;;;;9.53;77.05;100760.22;4970389;28;107634;-74
2021/11/20 06:21:47;;;;;;;13.32;8.52;;;;;;;9.53;76.99;100770.88;4970477;28;106704;-66
2021/11/20 06:24:13;;;;;;;11.90;8.20;;;;;;;9.50;76.92;100766.72;4971297;28;106206;-68
2021/11/20 06:26:38;;;;;;;14.13;8.88;;;;;;;9.46;76.97;100770.66;4970647;28;106196;-66
2021/11/20 06:29:05;;;;;;;12.52;8.15;;;;;;;9.44;77.07;100767.28;4968887;28;105996;-66
2021/11/20 06:31:30;;;;;;;12.80;8.90;;;;;;;9.41;77.19;100773.75;4970542;28;106991;-68
2021/11/20 06:33:57;;;;;;;13.82;9.05;;;;;;;9.40;77.79;100777.38;4971099;28;106089;-65
2021/11/20 06:36:24;;;;;;;14.30;9.20;;;;;;;9.38;77.69;100784.69;4970755;28;106222;-69
2021/11/20 06:38:49;;;;;;;11.55;7.90;;;;;;;9.39;77.79;100790.84;4970070;28;107146;-67
2021/11/20 06:41:15;;;;;;;13.48;9.07;;;;;;;9.34;77.77;100783.31;4970164;28;106262;-69
2021/11/20 06:43:41;;;;;;;13.52;9.55;;;;;;;9.34;78.24;100788.63;4970944;28;105882;-67
2021/11/20 06:46:10;;;;;;;11.70;9.25;;;;;;;9.32;78.20;100786.13;4968478;28;105859;-69
2021/11/20 06:48:36;;;;;;;12.38;8.38;;;;;;;9.31;78.13;100788.94;4969234;28;106824;-70
2021/11/20 06:51:03;;;;;;;11.85;8.48;;;;;;;9.28;78.08;100791.84;4969954;28;106853;-69
2021/11/20 06:53:29;;;;;;;13.20;8.32;;;;;;;9.28;78.31;100779.41;4971049;28;105858;-70
2021/11/20 06:55:55;;;;;;;13.80;9.48;;;;;;;9.29;78.17;100790.88;4969805;28;106203;-72
2021/11/20 06:58:41;;;;;;;13.40;9.25;;;;;;;9.30;78.77;100793.38;4969591;28;106087;-69
2021/11/20 07:01:10;;;;;;;12.98;8.43;;;;;;;9.29;78.61;100796.19;4968977;28;105848;-72
2021/11/20 07:03:55;;;;;;;13.18;9.30;;;;;;;9.28;78.42;100794.53;4970236;28;105974;-72
2021/11/20 07:06:33;;;;;;;13.60;9.48;;;;;;;9.26;78.58;100801.81;4969260;28;106187;-71
2021/11/20 07:08:59;;;;;;;10.60;7.47;;;;;;;9.28;79.17;100810.47;4969587;28;106336;-72
2021/11/20 07:11:25;;;;;;;12.13;9.25;;;;;;;9.28;78.97;100802.50;4969530;28;105954;-71
2021/11/20 07:13:52;;;;;;;12.57;9.90;;;;;;;9.29;79.20;100812.16;4970228;28;105935;-70
2021/11/20 07:16:20;;;;;;;11.32;8.65;;;;;;;9.28;79.11;100805.16;4969472;28;106199;-72
2021/11/20 07:18:46;;;;;;;13.63;9.00;;;;;;;9.29;79.20;100812.16;4969403;28;105990;-71
2021/11/20 07:21:12;;;;;;;12.20;8.75;;;;;;;9.30;79.40;100809.34;4969041;28;106248;-71
2021/11/20 07:23:38;;;;;;;12.07;9.30;;;;;;;9.31;79.21;100810.19;4970327;28;105858;-70
2021/11/20 07:26:06;;;;;;;13.30;9.50;;;;;;;9.33;79.27;100805.56;4969086;28;106253;-73
2021/11/20 07:28:32;;;;;;;13.73;9.88;;;;;;;9.34;79.24;100801.09;4969196;28;105701;-71
2021/11/20 07:30:59;;;;;;;15.02;8.85;;;;;;;9.32;78.91;100809.19;4969278;28;106089;-71
2021/11/20 07:33:25;;;;;;;14.88;10.30;;;;;;;9.28;79.34;100810.47;4970109;28;106024;-71
2021/11/20 07:35:57;;;;;;;12.38;9.50;;;;;;;9.28;79.51;100810.47;4969504;28;106310;-72
2021/11/20 07:38:33;;;;;;;13.40;8.95;;;;;;;9.27;79.60;100808.81;4968803;28;105875;-73
2021/11/20 07:40:59;;;;;;;15.05;9.65;;;;;;;9.27;79.74;100808.81;4969066;28;106050;-70
2021/11/20 07:43:24;;;;;;;13.52;10.38;;;;;;;9.28;79.99;100808.66;4970083;28;106402;-73
2021/11/20 07:45:50;;;;;;;13.75;9.55;;;;;;;9.29;79.58;100806.84;4969386;28;105956;-70
2021/11/20 07:48:22;;;;;;;11.55;8.43;;;;;;;9.28;79.82;100805.16;4968443;28;105918;-73
2021/11/20 07:50:49;;;;;;;10.23;7.55;;;;;;;9.27;79.86;100799.00;4968882;28;106619;-74
2021/11/20 07:53:16;;;;;;;14.35;9.38;;;;;;;9.27;80.04;100806.16;4969467;28;105844;-69
2021/11/20 07:55:42;;;;;;;11.88;8.75;;;;;;;9.29;80.14;100806.84;4969381;28;105887;-74
2021/11/20 07:58:08;;;;;;;14.02;8.93;;;;;;;9.30;80.08;100813.84;4968899;28;106402;-74
2021/11/20 08:00:35;;;;;;;12.98;9.43;;;;;;;9.32;80.31;100819.81;4969089;28;105829;-71
2021/11/20 08:03:00;;;;;;;12.63;8.82;;;;;;;9.33;80.26;100808.22;4969691;28;105745;-72
2021/11/20 08:05:28;;;;;;;12.30;9.25;;;;;;;9.35;80.17;100816.91;4969320;28;106233;-74
2021/11/20 08:07:55;;;;;;;10.15;7.50;;;;;;;9.35;80.42;100806.25;4969214;28;105922;-74
2021/11/20 08:10:23;;;;;;;12.10;8.20;;;;;;;9.36;80.31;100820.38;4968755;28;106034;-74
2021/11/20 08:12:49;;;;;;;11.95;8.90;;;;;;;9.35;80.25;100811.59;4969798;28;105713;-75
2021/11/20 08:15:16;;;;;;;14.57;8.63;;;;;;;9.37;80.63;100817.56;4968638;28;106219;-72
2021/11/20 08:17:43;;;;;;;11.93;8.15;;;;;;;9.40;80.35;100814.63;4968282;28;105815;-75
2021/11/20 08:20:12;;;;;;;11.05;8.52;;;;;;;9.44;80.67;100809.84;4968323;28;106017;-74
2021/11/20 08:22:38;;;;;;;11.85;8.52;;;;;;;9.48;80.56;100812.06;4969318;28;105927;-74
2021/11/20 08:25:07;;;;;;;13.27;8.85;;;;;;;9.51;80.56;100812.75;4968575;28;106141;-74
2021/11/20 08:27:33;;;;;;;10.55;8.38;;;;;;;9.53;80.93;100808.09;4930466;28;106256;-70
2021/11/20 08:29:58;;;;;;;10.35;7.25;;;;;;;9.54;80.63;100804.47;4947635;28;105956;-72
2021/11/20 08:32:24;;;;;;;11.13;7.93;;;;;;;9.60;80.63;100814.53;4949852;28;106122;-72
2021/11/20 08:34:50;;;;;;;9.52;6.13;;;;;;;9.68;81.28;100805.78;4948246;28;105815;-72
2021/11/20 08:37:16;;;;;;;11.32;8.18;;;;;;;9.73;80.88;100815.03;4948418;28;106323;-66
2021/11/20 08:39:42;;;;;;;9.13;6.63;;;;;;;9.77;80.97;100816.41;4948483;28;106233;-70
2021/11/20 08:42:07;;;;;;;10.35;6.75;;;;;;;9.86;81.05;100809.31;4949541;28;105943;-68
2021/11/20 08:44:33;;;;;;;11.93;7.20;;;;;;;9.95;80.72;100818.22;4948895;28;106130;-67
2021/11/20 08:46:59;;;;;;;9.15;6.28;;;;;;;10.04;80.64;100819.16;4946056;28;106576;-67
2021/11/20 08:49:25;;;;;;;10.70;7.63;;;;;;;10.10;80.69;100816.72;4946165;28;106063;-67
2021/11/20 08:51:52;;;;;;;11.63;6.95;;;;;;;10.18;80.83;100815.13;4946748;28;106286;-67
2021/11/20 08:54:19;;;;;;;11.38;6.88;;;;;;;10.27;80.59;100817.69;4946250;28;106378;-68
2021/11/20 08:56:47;;;;;;;8.23;6.45;;;;;;;10.30;79.66;100813.91;4945643;28;106154;-65
2021/11/20 08:59:15;;;;;;;8.32;6.05;;;;;;;10.39;79.99;100813.03;4946108;28;106527;-67
2021/11/20 09:01:47;;;;;;;12.82;5.55;;;;;;;10.45;79.72;100809.72;4946620;28;106027;-66
2021/11/20 09:04:27;;;;;;;7.90;5.80;;;;;;;10.47;79.73;100810.41;4946506;28;106183;-65
2021/11/20 09:07:02;;;;;;;8.00;5.50;;;;;;;10.50;79.52;100810.09;4946631;28;106686;-66
2021/11/20 09:09:41;;;;;;;7.88;5.22;;;;;;;10.56;79.57;100811.31;4946558;28;106488;-66
2021/11/20 09:12:24;;;;;;;8.55;5.72;;;;;;;10.63;79.91;100811.53;4948692;28;106321;-69
2021/11/20 09:14:58;;;;;;;8.95;5.68;;;;;;;10.67;79.37;100804.91;4948762;28;106269;-68
2021/11/20 09:17:25;;;;;;;7.85;6.03;;;;;;;10.76;79.36;100797.81;4946843;28;106002;-67
2021/11/20 09:19:51;;;;;;;8.25;5.43;;;;;;;10.78;79.63;100793.97;4946189;28;106548;-70
2021/11/20 09:22:18;;;;;;;7.43;5.65;;;;;;;10.79;78.81;100790.31;4949277;28;105908;-69
2021/11/20 09:24:45;;;;;;;10.18;6.30;;;;;;;10.82;79.65;100800.66;4947325;28;106174;-68
2021/11/20 09:27:12;;;;;;;9.57;6.75;;;;;;;10.88;78.98;100798.38;4948212;28;106791;-68
2021/11/20 09:29:39;;;;;;;7.57;5.75;;;;;;;10.83;78.69;100794.34;4946212;28;106596;-70
2021/11/20 09:32:07;;;;;;;8.90;5.82;;;;;;;10.81;79.33;100793.69;4951471;28;106058;-68
2021/11/20 09:34:33;;;;;;;7.25;5.68;;;;;;;10.83;78.83;100797.00;4950955;28;106502;-71
2021/11/20 09:36:59;;;;;;;8.93;6.13;;;;;;;10.85;78.33;100786.19;4951553;28;105861;-67
2021/11/20 09:39:28;;;;;;;9.20;5.90;;;;;;;10.84;79.01;100792.53;4951282;28;105982;-65
2021/11/20 09:42:15;;;;;;;7.88;5.10;;;;;;;10.81;78.54;100788.34;4934688;28;105951;-65
2021/11/20 09:44:45;;;;;;;10.50;6.18;;;;;;;10.76;78.37;100790.63;4947712;28;106054;-68
2021/11/20 09:47:18;;;;;;;8.63;5.60;;;;;;;10.66;78.56;100785.41;4949016;28;106123;-71
2021/11/20 09:49:47;;;;;;;8.88;6.35;;;;;;;10.60;78.16;100785.22;4948317;28;107236;-66
2021/11/20 09:52:14;;;;;;;9.43;6.70;;;;;;;10.57;78.52;100777.53;4947800;28;106070;-66
2021/11/20 09:54:44;;;;;;;8.18;5.90;;;;;;;10.51;78.78;100781.63;4949524;28;106197;-63
2021/11/20 09:57:10;;;;;;;8.88;6.32;;;;;;;10.48;78.84;100785.47;4948222;28;106731;-70
2021/11/20 09:59:40;;;;;;;9.30;6.45;;;;;;;10.44;79.04;100786.75;4949241;28;105946;-69
2021/11/20 10:02:44;;;;;;;8.93;6.28;;;;;;;10.39;79.13;100781.06;4950424;28;107073;-68
2021/11/20 10:05:09;;;;;;;9.90;6.57;;;;;;;10.35;78.59;100779.69;4937014;28;106697;-68
2021/11/20 10:07:35;;;;;;;10.90;6.05;;;;;;;10.31;78.67;100773.78;4949346;28;106862;-68
2021/11/20 10:10:32;;;;;;;10.48;6.25;;;;;;;10.28;79.23;100783.94;4948911;28;106496;-68
2021/11/20 10:13:03;;;;;;;7.65;6.70;;;;;;;10.30;79.15;100771.28;4950636;28;106027;-67
2021/11/20 10:15:33;;;;;;;9.30;6.50;;;;;;;10.29;79.15;100767.81;4949410;28;106058;-70
2021/11/20 10:18:04;;;;;;;8.57;6.13;;;;;;;10.26;78.93;100748.63;4949418;28;106732;-66
2021/11/20 10:20:40;;;;;;;8.85;6.95;;;;;;;10.22;79.04;100753.41;4948734;28;106751;-69
2021/11/20 10:23:26;;;;;;;10.02;6.45;;;;;;;10.23;78.89;100743.63;4950475;28;106359;-71
2021/11/20 10:26:19;;;;;;;9.00;5.95;;;;;;;10.22;79.22;100739.28;4949590;28;106414;-69
2021/11/20 10:29:06;;;;;;;9.43;6.50;;;;;;;10.22;79.09;100745.44;4945231;28;107143;-69
2021/11/20 10:31:39;;;;;;;8.50;6.15;;;;;;;10.21;78.59;100738.44;4946569;28;106929;-65
2021/11/20 10:34:18;;;;;;;7.20;5.25;;;;;;;10.20;78.61;100738.56;4949925;28;105959;-66
2021/11/20 10:36:53;;;;;;;8.15;5.45;;;;;;;10.19;78.94;100728.94;4949149;28;106354;-68
2021/11/20 10:39:25;;;;;;;7.22;5.50;;;;;;;10.17;78.58;100731.75;4948765;28;106019;-68
2021/11/20 10:42:11;;;;;;;7.97;5.30;;;;;;;10.19;79.23;100728.94;4947936;28;106699;-68
2021/11/20 10:44:37;;;;;;;8.40;6.00;;;;;;;10.19;79.10;100723.63;4949235;28;106124;-68
2021/11/20 10:47:11;;;;;;;9.52;5.57;;;;;;;10.16;78.87;100730.91;4948523;28;106256;-70
2021/11/20 10:49:54;;;;;;;6.85;5.38;;;;;;;10.15;78.63;100723.91;4948966;28;106034;-66
2021/11/20 10:52:42;;;;;;;8.23;6.55;;;;;;;10.16;78.76;100722.91;4948613;28;106104;-65
2021/11/20 10:55:27;;;;;;;9.18;5.93;;;;;;;10.19;78.72;100721.78;4949160;28;106514;-65
2021/11/20 10:58:18;;;;;;;7.53;5.07;;;;;;;10.23;78.98;100722.31;4949285;28;106051;-66
2021/11/20 11:00:46;;;;;;;8.70;6.35;;;;;;;10.26;78.51;100714.84;4948974;28;107440;-67
2021/11/20 11:03:35;;;;;;;11.02;7.93;;;;;;;10.29;78.65;100708.38;4948614;28;106267;-64
2021/11/20 11:06:36;;;;;;;10.10;6.47;;;;;;;10.29;78.70;100705.69;4949489;28;106042;-66
2021/11/20 11:09:13;;;;;;;;;;;;;;;10.32;78.34;100690.25;4948525;28;106716;-69
2021/11/20 11:11:47;;;;;;;9.23;6.07;;;;;;;10.35;78.59;100691.81;4947105;28;106855;-64
2021/11/20 11:14:55;;;;;;;8.02;5.22;;;;;;;10.36;78.54;100682.84;4948056;28;106587;-67
2021/11/20 11:17:58;;;;;;;9.55;5.97;;;;;;;10.37;78.18;100684.47;4942866;28;106244;-70
2021/11/20 11:20:48;;;;;;;8.55;5.00;;;;;;;10.35;78.48;100691.81;4948645;28;106217;-71
2021/11/20 11:23:13;;;;;;;8.05;5.35;;;;;;;10.34;78.17;100690.09;4948758;28;106000;-67
2021/11/20 11:25:49;;;;;;;8.82;5.50;;;;;;;10.32;77.97;100689.44;4948628;28;106078;-69
2021/11/20 11:28:14;;;;;;;10.43;5.68;;;;;;;10.30;78.27;100680.75;4949393;28;105999;-68